Terminal Aerodrome Forecast
Issued by NWS

Home | Current Version | Previous Version | Text Only | Print | Product List | Glossary On
Versions: 1 2 3 4 5 6 7 8 9 10 11 12 13 14 15 16 17 18 19
722
FTUS46 KLOX 222331
TAFSBP
TAF
KSBP 222331Z 2300/2324 31017G23KT P6SM SKC
     FM230300 32008KT P6SM SKC
     FM230800 VRB03KT P6SM SCT005
     FM231400 VRB03KT P6SM SKC
     FM231900 31011KT P6SM SKC=

USA.gov is the U.S. government's official web portal to all federal, state and local government web resources and services.